sensor_id;sensor_type;location;lat;lon;timestamp;pressure;altitude;pressure_sealevel;temperature;humidity
86807;BME280;77572;48.666;12.684;2024-03-29T00:03:58;96611.25;;;11.81;62.65
86807;BME280;77572;48.666;12.684;2024-03-29T00:08:59;96625.38;;;11.42;61.81
86807;BME280;77572;48.666;12.684;2024-03-29T00:14:01;96616.66;;;11.86;63.02
86807;BME280;77572;48.666;12.684;2024-03-29T00:19:05;96614.56;;;11.75;62.83
86807;BME280;77572;48.666;12.684;2024-03-29T00:24:06;96602.63;;;11.74;62.81
86807;BME280;77572;48.666;12.684;2024-03-29T00:29:06;96606.31;;;11.86;63.31
86807;BME280;77572;48.666;12.684;2024-03-29T00:34:10;96593.59;;;11.85;62.58
86807;BME280;77572;48.666;12.684;2024-03-29T00:39:10;96599.03;;;11.75;63.15
86807;BME280;77572;48.666;12.684;2024-03-29T00:44:11;96598.66;;;11.78;62.90
86807;BME280;77572;48.666;12.684;2024-03-29T00:49:15;96592.97;;;11.61;63.38
86807;BME280;77572;48.666;12.684;2024-03-29T00:54:15;96588.28;;;11.29;62.52
86807;BME280;77572;48.666;12.684;2024-03-29T00:59:16;96582.03;;;11.38;63.26
86807;BME280;77572;48.666;12.684;2024-03-29T01:04:19;96591.19;;;11.40;62.72
86807;BME280;77572;48.666;12.684;2024-03-29T01:09:20;96597.84;;;11.50;64.40
86807;BME280;77572;48.666;12.684;2024-03-29T01:14:20;96588.41;;;11.63;63.87
86807;BME280;77572;48.666;12.684;2024-03-29T01:19:24;96573.34;;;11.24;63.70
86807;BME280;77572;48.666;12.684;2024-03-29T01:24:24;96557.28;;;11.50;64.43
86807;BME280;77572;48.666;12.684;2024-03-29T01:29:25;96536.72;;;11.42;63.29
86807;BME280;77572;48.666;12.684;2024-03-29T01:34:28;96534.75;;;11.93;62.71
86807;BME280;77572;48.666;12.684;2024-03-29T01:39:29;96525.84;;;11.74;62.18
86807;BME280;77572;48.666;12.684;2024-03-29T01:44:31;96518.09;;;12.03;61.65
86807;BME280;77572;48.666;12.684;2024-03-29T01:49:35;96510.94;;;11.77;61.29
86807;BME280;77572;48.666;12.684;2024-03-29T01:54:35;96505.59;;;11.07;61.68
86807;BME280;77572;48.666;12.684;2024-03-29T01:59:37;96523.81;;;11.70;62.18
86807;BME280;77572;48.666;12.684;2024-03-29T02:04:41;96532.72;;;11.39;63.41
86807;BME280;77572;48.666;12.684;2024-03-29T02:09:42;96532.13;;;10.58;63.80
86807;BME280;77572;48.666;12.684;2024-03-29T02:14:43;96527.56;;;11.39;63.32
86807;BME280;77572;48.666;12.684;2024-03-29T02:19:46;96528.72;;;11.37;63.04
86807;BME280;77572;48.666;12.684;2024-03-29T02:24:50;96542.47;;;11.16;63.11
86807;BME280;77572;48.666;12.684;2024-03-29T02:29:51;96527.75;;;11.16;63.53
86807;BME280;77572;48.666;12.684;2024-03-29T02:34:53;96532.44;;;10.85;64.44
86807;BME280;77572;48.666;12.684;2024-03-29T02:39:56;96529.78;;;11.21;63.75
86807;BME280;77572;48.666;12.684;2024-03-29T02:44:57;96539.75;;;11.24;63.12
86807;BME280;77572;48.666;12.684;2024-03-29T02:49:57;96532.38;;;11.00;63.46
86807;BME280;77572;48.666;12.684;2024-03-29T02:55:00;96531.59;;;11.20;63.77
86807;BME280;77572;48.666;12.684;2024-03-29T03:00:01;96536.06;;;11.12;62.99
86807;BME280;77572;48.666;12.684;2024-03-29T03:05:03;96530.16;;;10.97;63.35
86807;BME280;77572;48.666;12.684;2024-03-29T03:10:07;96506.72;;;10.77;63.92
86807;BME280;77572;48.666;12.684;2024-03-29T03:15:26;96503.56;;;11.24;63.85
86807;BME280;77572;48.666;12.684;2024-03-29T03:20:27;96510.47;;;11.38;62.47
86807;BME280;77572;48.666;12.684;2024-03-29T03:25:34;96501.69;;;11.11;62.88
86807;BME280;77572;48.666;12.684;2024-03-29T03:30:38;96517.28;;;10.82;63.24
86807;BME280;77572;48.666;12.684;2024-03-29T03:35:39;96501.19;;;11.23;63.46
86807;BME280;77572;48.666;12.684;2024-03-29T03:40:42;96467.81;;;11.00;63.85
86807;BME280;77572;48.666;12.684;2024-03-29T03:45:43;96476.34;;;10.79;62.00
86807;BME280;77572;48.666;12.684;2024-03-29T03:50:44;96481.94;;;11.04;63.29
86807;BME280;77572;48.666;12.684;2024-03-29T03:55:47;96487.16;;;11.32;63.05
86807;BME280;77572;48.666;12.684;2024-03-29T04:00:49;96456.56;;;10.64;64.23
86807;BME280;77572;48.666;12.684;2024-03-29T04:05:50;96459.81;;;10.94;63.06
86807;BME280;77572;48.666;12.684;2024-03-29T04:10:53;96454.09;;;11.20;64.05
86807;BME280;77572;48.666;12.684;2024-03-29T04:15:53;96479.47;;;11.17;63.15
86807;BME280;77572;48.666;12.684;2024-03-29T04:21:01;96502.56;;;10.97;63.33
86807;BME280;77572;48.666;12.684;2024-03-29T04:26:05;96505.06;;;11.12;63.23
86807;BME280;77572;48.666;12.684;2024-03-29T04:31:06;96501.44;;;11.06;63.33
86807;BME280;77572;48.666;12.684;2024-03-29T04:36:07;96496.19;;;10.78;64.20
86807;BME280;77572;48.666;12.684;2024-03-29T04:41:10;96499.09;;;11.11;63.50
86807;BME280;77572;48.666;12.684;2024-03-29T04:46:11;96472.03;;;11.07;64.03
86807;BME280;77572;48.666;12.684;2024-03-29T04:51:12;96466.81;;;11.50;63.01
86807;BME280;77572;48.666;12.684;2024-03-29T04:56:16;96476.34;;;11.21;62.71
86807;BME280;77572;48.666;12.684;2024-03-29T05:01:18;96464.22;;;11.22;62.94
86807;BME280;77572;48.666;12.684;2024-03-29T05:06:18;96449.59;;;11.64;62.17
86807;BME280;77572;48.666;12.684;2024-03-29T05:11:21;96454.06;;;11.48;62.73
86807;BME280;77572;48.666;12.684;2024-03-29T05:16:22;96469.41;;;10.79;63.89
86807;BME280;77572;48.666;12.684;2024-03-29T05:21:23;96469.00;;;10.97;62.87
86807;BME280;77572;48.666;12.684;2024-03-29T05:26:26;96471.06;;;11.36;62.10
86807;BME280;77572;48.666;12.684;2024-03-29T05:31:27;96445.16;;;11.02;63.33
86807;BME280;77572;48.666;12.684;2024-03-29T05:36:28;96438.38;;;11.22;63.41
86807;BME280;77572;48.666;12.684;2024-03-29T05:41:31;96456.00;;;10.90;63.80
86807;BME280;77572;48.666;12.684;2024-03-29T05:46:32;96456.28;;;11.02;63.58
86807;BME280;77572;48.666;12.684;2024-03-29T05:51:33;96450.81;;;11.12;59.53
86807;BME280;77572;48.666;12.684;2024-03-29T05:56:39;96458.03;;;11.44;63.21
86807;BME280;77572;48.666;12.684;2024-03-29T06:01:39;96457.00;;;11.67;62.24
86807;BME280;77572;48.666;12.684;2024-03-29T06:06:40;96453.94;;;10.43;62.05
86807;BME280;77572;48.666;12.684;2024-03-29T06:11:43;96448.31;;;10.97;64.19
86807;BME280;77572;48.666;12.684;2024-03-29T06:16:44;96411.38;;;10.75;63.35
86807;BME280;77572;48.666;12.684;2024-03-29T06:22:03;96422.41;;;10.90;63.96
86807;BME280;77572;48.666;12.684;2024-03-29T06:27:07;96424.41;;;9.95;64.69
86807;BME280;77572;48.666;12.684;2024-03-29T06:32:07;96434.22;;;11.00;62.37
86807;BME280;77572;48.666;12.684;2024-03-29T06:37:08;96400.66;;;11.00;62.99
86807;BME280;77572;48.666;12.684;2024-03-29T06:42:11;96392.91;;;11.00;61.17
86807;BME280;77572;48.666;12.684;2024-03-29T06:47:12;96398.97;;;9.92;62.66
86807;BME280;77572;48.666;12.684;2024-03-29T06:52:13;96402.63;;;10.98;63.24
86807;BME280;77572;48.666;12.684;2024-03-29T06:57:16;96394.94;;;11.32;61.30
86807;BME280;77572;48.666;12.684;2024-03-29T07:02:20;96400.19;;;11.17;62.38
86807;BME280;77572;48.666;12.684;2024-03-29T07:07:21;96416.97;;;11.28;61.21
86807;BME280;77572;48.666;12.684;2024-03-29T07:12:24;96420.22;;;10.66;58.80
86807;BME280;77572;48.666;12.684;2024-03-29T07:17:25;96433.97;;;10.94;62.18
86807;BME280;77572;48.666;12.684;2024-03-29T07:22:26;96436.63;;;11.29;61.20
86807;BME280;77572;48.666;12.684;2024-03-29T07:27:31;96420.56;;;11.06;60.75
86807;BME280;77572;48.666;12.684;2024-03-29T07:32:34;96435.88;;;11.35;60.95
86807;BME280;77572;48.666;12.684;2024-03-29T07:37:34;96441.38;;;11.54;61.09
86807;BME280;77572;48.666;12.684;2024-03-29T07:42:37;96450.81;;;11.68;59.93
86807;BME280;77572;48.666;12.684;2024-03-29T07:47:38;96452.47;;;11.47;59.78
86807;BME280;77572;48.666;12.684;2024-03-29T07:52:39;96450.72;;;11.55;60.35
86807;BME280;77572;48.666;12.684;2024-03-29T07:57:42;96443.28;;;11.73;58.96
86807;BME280;77572;48.666;12.684;2024-03-29T08:02:43;96423.50;;;11.59;58.82
86807;BME280;77572;48.666;12.684;2024-03-29T08:07:44;96413.47;;;9.93;53.80
86807;BME280;77572;48.666;12.684;2024-03-29T08:12:47;96409.03;;;12.06;58.81
86807;BME280;77572;48.666;12.684;2024-03-29T08:17:49;96397.38;;;12.36;58.33
86807;BME280;77572;48.666;12.684;2024-03-29T08:22:50;96388.34;;;11.30;57.34
86807;BME280;77572;48.666;12.684;2024-03-29T08:27:53;96408.78;;;10.97;54.56
86807;BME280;77572;48.666;12.684;2024-03-29T08:32:58;96413.16;;;11.24;56.41
86807;BME280;77572;48.666;12.684;2024-03-29T08:38:00;96413.97;;;11.59;59.01
86807;BME280;77572;48.666;12.684;2024-03-29T08:43:04;96416.31;;;11.82;55.24
86807;BME280;77572;48.666;12.684;2024-03-29T08:48:05;96407.28;;;11.09;56.12
86807;BME280;77572;48.666;12.684;2024-03-29T08:53:06;96417.72;;;11.22;49.38
86807;BME280;77572;48.666;12.684;2024-03-29T08:58:10;96404.44;;;12.75;56.27
86807;BME280;77572;48.666;12.684;2024-03-29T09:03:10;96386.50;;;13.20;54.46
86807;BME280;77572;48.666;12.684;2024-03-29T09:08:11;96378.31;;;13.43;54.68
86807;BME280;77572;48.666;12.684;2024-03-29T09:13:14;96384.44;;;13.62;47.00
86807;BME280;77572;48.666;12.684;2024-03-29T09:18:15;96399.22;;;13.62;52.32
86807;BME280;77572;48.666;12.684;2024-03-29T09:23:23;96391.03;;;13.58;55.23
86807;BME280;77572;48.666;12.684;2024-03-29T09:28:28;96401.66;;;12.90;49.90
86807;BME280;77572;48.666;12.684;2024-03-29T09:33:28;96390.31;;;14.02;48.15
86807;BME280;77572;48.666;12.684;2024-03-29T09:38:29;96379.94;;;14.34;51.74
86807;BME280;77572;48.666;12.684;2024-03-29T09:43:32;96391.16;;;14.28;50.80
86807;BME280;77572;48.666;12.684;2024-03-29T09:48:34;96382.97;;;14.31;48.10
86807;BME280;77572;48.666;12.684;2024-03-29T09:53:37;96396.53;;;14.33;45.19
86807;BME280;77572;48.666;12.684;2024-03-29T09:58:40;96375.72;;;14.39;51.85
86807;BME280;77572;48.666;12.684;2024-03-29T10:03:43;96352.66;;;14.25;48.75
86807;BME280;77572;48.666;12.684;2024-03-29T10:08:45;96346.31;;;14.14;53.48
86807;BME280;77572;48.666;12.684;2024-03-29T10:13:49;96340.09;;;14.22;53.37
86807;BME280;77572;48.666;12.684;2024-03-29T10:18:49;96342.44;;;14.61;51.47
86807;BME280;77572;48.666;12.684;2024-03-29T10:23:50;96328.25;;;14.32;46.04
86807;BME280;77572;48.666;12.684;2024-03-29T10:28:54;96341.84;;;14.59;47.22
86807;BME280;77572;48.666;12.684;2024-03-29T10:33:55;96340.25;;;14.58;52.25
86807;BME280;77572;48.666;12.684;2024-03-29T10:38:55;96342.13;;;15.01;51.25
86807;BME280;77572;48.666;12.684;2024-03-29T10:44:01;96340.41;;;14.95;48.38
86807;BME280;77572;48.666;12.684;2024-03-29T10:49:07;96323.59;;;15.53;45.40
86807;BME280;77572;48.666;12.684;2024-03-29T10:54:11;96317.44;;;15.29;45.54
86807;BME280;77572;48.666;12.684;2024-03-29T10:59:21;96320.13;;;15.77;44.25
86807;BME280;77572;48.666;12.684;2024-03-29T11:04:23;96318.53;;;15.21;50.96
86807;BME280;77572;48.666;12.684;2024-03-29T11:09:31;96323.88;;;15.26;45.66
86807;BME280;77572;48.666;12.684;2024-03-29T11:14:40;96314.22;;;15.33;49.82
86807;BME280;77572;48.666;12.684;2024-03-29T11:19:42;96318.63;;;15.51;45.40
86807;BME280;77572;48.666;12.684;2024-03-29T11:24:43;96309.81;;;15.70;45.22
86807;BME280;77572;48.666;12.684;2024-03-29T11:29:46;96304.09;;;15.43;50.81
86807;BME280;77572;48.666;12.684;2024-03-29T11:34:50;96306.06;;;15.66;48.04
86807;BME280;77572;48.666;12.684;2024-03-29T11:39:54;96293.41;;;16.00;47.34
86807;BME280;77572;48.666;12.684;2024-03-29T11:44:57;96293.44;;;15.82;48.29
86807;BME280;77572;48.666;12.684;2024-03-29T11:49:58;96299.41;;;16.00;47.73
86807;BME280;77572;48.666;12.684;2024-03-29T11:55:00;96299.06;;;15.67;48.33
86807;BME280;77572;48.666;12.684;2024-03-29T12:00:04;96286.97;;;15.36;51.45
86807;BME280;77572;48.666;12.684;2024-03-29T12:05:06;96286.84;;;15.49;50.14
86807;BME280;77572;48.666;12.684;2024-03-29T12:10:09;96290.88;;;15.45;51.75
86807;BME280;77572;48.666;12.684;2024-03-29T12:15:12;96278.72;;;15.76;49.43
86807;BME280;77572;48.666;12.684;2024-03-29T12:20:14;96271.00;;;15.69;50.38
86807;BME280;77572;48.666;12.684;2024-03-29T12:25:19;96270.44;;;15.67;51.25
86807;BME280;77572;48.666;12.684;2024-03-29T12:30:23;96268.69;;;15.79;51.38
86807;BME280;77572;48.666;12.684;2024-03-29T12:35:23;96261.06;;;15.66;50.77
86807;BME280;77572;48.666;12.684;2024-03-29T12:40:25;96267.63;;;16.10;48.48
86807;BME280;77572;48.666;12.684;2024-03-29T12:45:28;96251.94;;;15.87;50.73
86807;BME280;77572;48.666;12.684;2024-03-29T12:50:31;96251.25;;;15.61;52.02
86807;BME280;77572;48.666;12.684;2024-03-29T12:55:32;96246.22;;;15.66;51.42
86807;BME280;77572;48.666;12.684;2024-03-29T13:00:40;96242.47;;;15.92;49.19
86807;BME280;77572;48.666;12.684;2024-03-29T13:11:01;96239.50;;;16.31;48.69
86807;BME280;77572;48.666;12.684;2024-03-29T13:16:04;96229.16;;;16.24;48.01
86807;BME280;77572;48.666;12.684;2024-03-29T13:21:05;96214.78;;;16.21;48.96
86807;BME280;77572;48.666;12.684;2024-03-29T13:26:05;96216.91;;;16.01;51.29
86807;BME280;77572;48.666;12.684;2024-03-29T13:31:11;96206.66;;;16.53;48.54
86807;BME280;77572;48.666;12.684;2024-03-29T13:36:12;96198.50;;;16.14;51.10
86807;BME280;77572;48.666;12.684;2024-03-29T13:41:13;96189.56;;;16.34;49.26
86807;BME280;77572;48.666;12.684;2024-03-29T13:46:20;96180.28;;;16.38;48.93
86807;BME280;77572;48.666;12.684;2024-03-29T13:51:21;96168.72;;;16.34;50.23
86807;BME280;77572;48.666;12.684;2024-03-29T13:56:22;96156.09;;;17.01;47.94
86807;BME280;77572;48.666;12.684;2024-03-29T14:01:25;96165.19;;;16.16;51.03
86807;BME280;77572;48.666;12.684;2024-03-29T14:06:26;96160.22;;;16.26;50.54
86807;BME280;77572;48.666;12.684;2024-03-29T14:11:26;96159.66;;;16.48;50.11
86807;BME280;77572;48.666;12.684;2024-03-29T14:16:30;96143.72;;;17.08;47.86
86807;BME280;77572;48.666;12.684;2024-03-29T14:21:30;96133.50;;;17.18;48.06
86807;BME280;77572;48.666;12.684;2024-03-29T14:26:31;96129.41;;;16.70;49.34
86807;BME280;77572;48.666;12.684;2024-03-29T14:31:34;96125.31;;;16.63;50.14
86807;BME280;77572;48.666;12.684;2024-03-29T14:36:34;96104.97;;;17.00;49.26
86807;BME280;77572;48.666;12.684;2024-03-29T14:41:35;96098.06;;;16.94;49.25
86807;BME280;77572;48.666;12.684;2024-03-29T14:46:39;96092.81;;;17.05;48.92
86807;BME280;77572;48.666;12.684;2024-03-29T14:51:40;96091.09;;;17.11;48.94
86807;BME280;77572;48.666;12.684;2024-03-29T14:56:41;96098.16;;;17.27;48.63
86807;BME280;77572;48.666;12.684;2024-03-29T15:01:45;96100.88;;;17.32;49.33
86807;BME280;77572;48.666;12.684;2024-03-29T15:06:46;96105.88;;;17.51;48.84
86807;BME280;77572;48.666;12.684;2024-03-29T15:11:49;96108.97;;;17.65;48.51
86807;BME280;77572;48.666;12.684;2024-03-29T15:16:53;96112.91;;;17.50;48.54
86807;BME280;77572;48.666;12.684;2024-03-29T15:21:54;96114.16;;;17.31;49.42
86807;BME280;77572;48.666;12.684;2024-03-29T15:26:59;96101.47;;;16.94;51.51
86807;BME280;77572;48.666;12.684;2024-03-29T15:32:03;96106.28;;;17.14;51.07
86807;BME280;77572;48.666;12.684;2024-03-29T15:37:04;96109.56;;;17.38;49.78
86807;BME280;77572;48.666;12.684;2024-03-29T15:42:04;96109.09;;;17.41;49.72
86807;BME280;77572;48.666;12.684;2024-03-29T15:47:08;96107.66;;;17.33;50.72
86807;BME280;77572;48.666;12.684;2024-03-29T15:52:10;96112.16;;;17.21;51.08
86807;BME280;77572;48.666;12.684;2024-03-29T15:57:10;96114.66;;;17.16;51.99
86807;BME280;77572;48.666;12.684;2024-03-29T16:02:14;96116.84;;;17.08;52.32
86807;BME280;77572;48.666;12.684;2024-03-29T16:07:15;96118.81;;;17.00;53.59
86807;BME280;77572;48.666;12.684;2024-03-29T16:12:15;96114.88;;;16.86;53.55
86807;BME280;77572;48.666;12.684;2024-03-29T16:17:18;96112.72;;;16.95;53.09
86807;BME280;77572;48.666;12.684;2024-03-29T16:22:19;96125.09;;;16.41;57.16
86807;BME280;77572;48.666;12.684;2024-03-29T16:27:21;96122.50;;;16.52;55.67
86807;BME280;77572;48.666;12.684;2024-03-29T16:32:24;96134.84;;;16.10;59.43
86807;BME280;77572;48.666;12.684;2024-03-29T16:37:25;96139.50;;;16.08;58.08
86807;BME280;77572;48.666;12.684;2024-03-29T16:42:25;96116.81;;;16.67;54.33
86807;BME280;77572;48.666;12.684;2024-03-29T16:47:28;96126.72;;;16.30;56.52
86807;BME280;77572;48.666;12.684;2024-03-29T16:52:29;96111.88;;;16.54;55.35
86807;BME280;77572;48.666;12.684;2024-03-29T16:57:30;96131.66;;;15.43;60.22
86807;BME280;77572;48.666;12.684;2024-03-29T17:02:33;96117.19;;;16.36;56.28
86807;BME280;77572;48.666;12.684;2024-03-29T17:07:35;96127.91;;;15.39;60.20
86807;BME280;77572;48.666;12.684;2024-03-29T17:12:35;96133.53;;;15.06;62.09
86807;BME280;77572;48.666;12.684;2024-03-29T17:17:39;96120.25;;;16.09;57.29
86807;BME280;77572;48.666;12.684;2024-03-29T17:22:40;96125.13;;;14.55;63.67
86807;BME280;77572;48.666;12.684;2024-03-29T17:27:40;96121.41;;;15.30;60.34
86807;BME280;77572;48.666;12.684;2024-03-29T17:32:43;96123.38;;;15.34;59.67
86807;BME280;77572;48.666;12.684;2024-03-29T17:37:44;96122.81;;;15.32;60.08
86807;BME280;77572;48.666;12.684;2024-03-29T17:42:45;96124.56;;;15.50;60.43
86807;BME280;77572;48.666;12.684;2024-03-29T17:47:48;96125.63;;;14.82;61.65
86807;BME280;77572;48.666;12.684;2024-03-29T17:52:49;96141.63;;;14.18;63.35
86807;BME280;77572;48.666;12.684;2024-03-29T17:57:49;96130.78;;;16.03;58.21
86807;BME280;77572;48.666;12.684;2024-03-29T18:02:53;96139.50;;;16.08;58.70
86807;BME280;77572;48.666;12.684;2024-03-29T18:07:54;96144.59;;;14.21;62.97
86807;BME280;77572;48.666;12.684;2024-03-29T18:12:54;96147.50;;;15.71;59.21
86807;BME280;77572;48.666;12.684;2024-03-29T18:17:59;96159.75;;;14.49;63.74
86807;BME280;77572;48.666;12.684;2024-03-29T18:23:00;96163.59;;;16.04;58.03
86807;BME280;77572;48.666;12.684;2024-03-29T18:28:01;96163.00;;;15.48;61.42
86807;BME280;77572;48.666;12.684;2024-03-29T18:33:06;96172.28;;;15.86;60.53
86807;BME280;77572;48.666;12.684;2024-03-29T18:38:08;96170.56;;;15.68;61.52
86807;BME280;77572;48.666;12.684;2024-03-29T18:43:09;96175.28;;;14.74;62.78
86807;BME280;77572;48.666;12.684;2024-03-29T18:48:15;96178.97;;;15.03;60.40
86807;BME280;77572;48.666;12.684;2024-03-29T18:53:16;96181.34;;;14.86;65.39
86807;BME280;77572;48.666;12.684;2024-03-29T18:58:16;96179.56;;;14.19;65.44
86807;BME280;77572;48.666;12.684;2024-03-29T19:03:21;96183.28;;;14.91;64.98
86807;BME280;77572;48.666;12.684;2024-03-29T19:08:22;96196.97;;;15.35;62.72
86807;BME280;77572;48.666;12.684;2024-03-29T19:13:23;96182.44;;;15.76;62.06
86807;BME280;77572;48.666;12.684;2024-03-29T19:18:27;96197.72;;;15.05;61.38
86807;BME280;77572;48.666;12.684;2024-03-29T19:23:27;96192.63;;;15.65;55.49
86807;BME280;77572;48.666;12.684;2024-03-29T19:28:30;96190.13;;;15.52;48.87
86807;BME280;77572;48.666;12.684;2024-03-29T19:33:33;96191.44;;;15.31;47.94
86807;BME280;77572;48.666;12.684;2024-03-29T19:38:34;96195.22;;;15.77;57.16
86807;BME280;77572;48.666;12.684;2024-03-29T19:43:34;96194.16;;;15.96;39.40
86807;BME280;77572;48.666;12.684;2024-03-29T19:48:38;96197.25;;;15.75;50.36
86807;BME280;77572;48.666;12.684;2024-03-29T19:53:38;96193.91;;;15.86;52.19
86807;BME280;77572;48.666;12.684;2024-03-29T19:58:39;96192.56;;;15.35;51.56
86807;BME280;77572;48.666;12.684;2024-03-29T20:03:45;96190.47;;;15.44;44.75
86807;BME280;77572;48.666;12.684;2024-03-29T20:08:46;96202.22;;;15.46;47.80
86807;BME280;77572;48.666;12.684;2024-03-29T20:13:46;96206.66;;;16.41;36.20
86807;BME280;77572;48.666;12.684;2024-03-29T20:18:51;96201.56;;;16.35;35.68
86807;BME280;77572;48.666;12.684;2024-03-29T20:23:54;96211.44;;;15.61;41.60
86807;BME280;77572;48.666;12.684;2024-03-29T20:28:55;96216.78;;;15.96;42.60
86807;BME280;77572;48.666;12.684;2024-03-29T20:33:58;96213.03;;;15.92;54.04
86807;BME280;77572;48.666;12.684;2024-03-29T20:38:59;96214.84;;;15.91;42.29
86807;BME280;77572;48.666;12.684;2024-03-29T20:44:00;96220.53;;;16.00;38.04
86807;BME280;77572;48.666;12.684;2024-03-29T20:49:05;96221.94;;;16.26;43.31
86807;BME280;77572;48.666;12.684;2024-03-29T20:54:06;96225.56;;;15.71;45.62
86807;BME280;77572;48.666;12.684;2024-03-29T20:59:07;96229.66;;;16.33;36.02
86807;BME280;77572;48.666;12.684;2024-03-29T21:04:10;96231.25;;;16.45;36.68
86807;BME280;77572;48.666;12.684;2024-03-29T21:09:30;96237.88;;;16.30;44.69
86807;BME280;77572;48.666;12.684;2024-03-29T21:14:30;96231.47;;;16.44;46.73
86807;BME280;77572;48.666;12.684;2024-03-29T21:19:33;96237.84;;;16.60;41.58
86807;BME280;77572;48.666;12.684;2024-03-29T21:24:35;96234.53;;;16.64;33.86
86807;BME280;77572;48.666;12.684;2024-03-29T21:29:35;96242.19;;;16.36;34.05
86807;BME280;77572;48.666;12.684;2024-03-29T21:34:39;96242.13;;;16.54;41.40
86807;BME280;77572;48.666;12.684;2024-03-29T21:39:39;96240.44;;;16.48;36.76
86807;BME280;77572;48.666;12.684;2024-03-29T21:44:40;96247.34;;;16.66;33.99
86807;BME280;77572;48.666;12.684;2024-03-29T21:49:44;96247.03;;;16.86;31.39
86807;BME280;77572;48.666;12.684;2024-03-29T21:54:45;96248.69;;;16.68;35.66
86807;BME280;77572;48.666;12.684;2024-03-29T21:59:46;96256.38;;;16.51;36.06
86807;BME280;77572;48.666;12.684;2024-03-29T22:04:49;96269.03;;;16.78;34.69
86807;BME280;77572;48.666;12.684;2024-03-29T22:09:50;96278.19;;;16.81;46.59
86807;BME280;77572;48.666;12.684;2024-03-29T22:14:53;96279.09;;;16.74;46.24
86807;BME280;77572;48.666;12.684;2024-03-29T22:19:56;96284.38;;;16.68;32.00
86807;BME280;77572;48.666;12.684;2024-03-29T22:24:57;96284.50;;;16.61;34.89
86807;BME280;77572;48.666;12.684;2024-03-29T22:29:58;96293.50;;;16.35;45.10
86807;BME280;77572;48.666;12.684;2024-03-29T22:35:01;96297.81;;;16.41;39.45
86807;BME280;77572;48.666;12.684;2024-03-29T22:40:04;96303.66;;;16.13;37.13
86807;BME280;77572;48.666;12.684;2024-03-29T22:45:05;96305.91;;;15.80;50.22
86807;BME280;77572;48.666;12.684;2024-03-29T22:50:12;96305.34;;;15.78;35.93
86807;BME280;77572;48.666;12.684;2024-03-29T22:55:13;96304.81;;;16.29;31.79
86807;BME280;77572;48.666;12.684;2024-03-29T23:00:13;96311.69;;;15.27;37.45
86807;BME280;77572;48.666;12.684;2024-03-29T23:05:18;96313.41;;;16.30;44.38
86807;BME280;77572;48.666;12.684;2024-03-29T23:10:19;96313.72;;;16.10;35.81
86807;BME280;77572;48.666;12.684;2024-03-29T23:15:20;96319.09;;;15.66;45.79
86807;BME280;77572;48.666;12.684;2024-03-29T23:20:24;96319.63;;;15.50;46.16
86807;BME280;77572;48.666;12.684;2024-03-29T23:25:25;96331.00;;;15.74;56.31
86807;BME280;77572;48.666;12.684;2024-03-29T23:30:25;96334.66;;;15.48;40.45
86807;BME280;77572;48.666;12.684;2024-03-29T23:35:30;96342.56;;;15.78;51.03
86807;BME280;77572;48.666;12.684;2024-03-29T23:40:31;96348.81;;;15.89;54.34
86807;BME280;77572;48.666;12.684;2024-03-29T23:45:31;96344.88;;;15.68;52.10
86807;BME280;77572;48.666;12.684;2024-03-29T23:50:34;96344.84;;;15.86;50.13
86807;BME280;77572;48.666;12.684;2024-03-29T23:55:35;96339.00;;;15.91;55.91
